sensor_id;sensor_type;location;lat;lon;timestamp;P1;durP1;ratioP1;P2;durP2;ratioP2
13985;SDS011;7067;51.832;8.296;2024-02-26T00:01:22;1.27;;;1.15;;
13985;SDS011;7067;51.832;8.296;2024-02-26T00:03:48;1.47;;;1.20;;
13985;SDS011;7067;51.832;8.296;2024-02-26T00:06:13;1.20;;;1.10;;
13985;SDS011;7067;51.832;8.296;2024-02-26T00:08:39;4.63;;;1.43;;
13985;SDS011;7067;51.832;8.296;2024-02-26T00:11:04;1.00;;;0.90;;
13985;SDS011;7067;51.832;8.296;2024-02-26T00:13:30;1.35;;;1.05;;
13985;SDS011;7067;51.832;8.296;2024-02-26T00:15:55;1.13;;;1.03;;
13985;SDS011;7067;51.832;8.296;2024-02-26T00:18:20;2.90;;;1.80;;
13985;SDS011;7067;51.832;8.296;2024-02-26T00:20:46;2.53;;;1.10;;
13985;SDS011;7067;51.832;8.296;2024-02-26T00:23:11;1.53;;;1.33;;
13985;SDS011;7067;51.832;8.296;2024-02-26T00:25:37;1.20;;;1.10;;
13985;SDS011;7067;51.832;8.296;2024-02-26T00:28:03;1.13;;;1.03;;
13985;SDS011;7067;51.832;8.296;2024-02-26T00:30:29;1.20;;;1.10;;
13985;SDS011;7067;51.832;8.296;2024-02-26T00:32:54;1.60;;;1.20;;
13985;SDS011;7067;51.832;8.296;2024-02-26T00:35:20;2.37;;;1.40;;
13985;SDS011;7067;51.832;8.296;2024-02-26T00:37:45;2.00;;;1.13;;
13985;SDS011;7067;51.832;8.296;2024-02-26T00:40:11;2.50;;;1.17;;
13985;SDS011;7067;51.832;8.296;2024-02-26T00:42:36;1.33;;;0.93;;
13985;SDS011;7067;51.832;8.296;2024-02-26T00:45:02;2.83;;;0.80;;
13985;SDS011;7067;51.832;8.296;2024-02-26T00:47:27;0.80;;;0.70;;
13985;SDS011;7067;51.832;8.296;2024-02-26T00:49:52;1.20;;;1.00;;
13985;SDS011;7067;51.832;8.296;2024-02-26T00:52:18;1.67;;;1.00;;
13985;SDS011;7067;51.832;8.296;2024-02-26T00:54:43;1.23;;;0.82;;
13985;SDS011;7067;51.832;8.296;2024-02-26T00:57:09;1.03;;;0.90;;
13985;SDS011;7067;51.832;8.296;2024-02-26T00:59:34;1.83;;;1.50;;
13985;SDS011;7067;51.832;8.296;2024-02-26T01:01:59;2.30;;;1.10;;
13985;SDS011;7067;51.832;8.296;2024-02-26T01:04:27;0.87;;;0.80;;
13985;SDS011;7067;51.832;8.296;2024-02-26T01:06:52;2.03;;;0.85;;
13985;SDS011;7067;51.832;8.296;2024-02-26T01:09:17;1.13;;;0.95;;
13985;SDS011;7067;51.832;8.296;2024-02-26T01:11:43;2.17;;;0.85;;
13985;SDS011;7067;51.832;8.296;2024-02-26T01:14:09;1.00;;;0.90;;
13985;SDS011;7067;51.832;8.296;2024-02-26T01:16:34;1.65;;;0.82;;
13985;SDS011;7067;51.832;8.296;2024-02-26T01:19:00;1.00;;;0.90;;
13985;SDS011;7067;51.832;8.296;2024-02-26T01:21:25;0.83;;;0.50;;
13985;SDS011;7067;51.832;8.296;2024-02-26T01:23:54;1.23;;;0.82;;
13985;SDS011;7067;51.832;8.296;2024-02-26T01:26:19;1.85;;;0.70;;
13985;SDS011;7067;51.832;8.296;2024-02-26T01:28:44;1.52;;;0.90;;
13985;SDS011;7067;51.832;8.296;2024-02-26T01:31:10;0.73;;;0.50;;
13985;SDS011;7067;51.832;8.296;2024-02-26T01:33:35;0.77;;;0.77;;
13985;SDS011;7067;51.832;8.296;2024-02-26T01:36:01;0.90;;;0.80;;
13985;SDS011;7067;51.832;8.296;2024-02-26T01:38:26;1.23;;;0.90;;
13985;SDS011;7067;51.832;8.296;2024-02-26T01:40:52;1.58;;;1.15;;
13985;SDS011;7067;51.832;8.296;2024-02-26T01:43:18;1.45;;;1.02;;
13985;SDS011;7067;51.832;8.296;2024-02-26T01:45:43;3.93;;;1.50;;
13985;SDS011;7067;51.832;8.296;2024-02-26T01:48:08;2.47;;;1.87;;
13985;SDS011;7067;51.832;8.296;2024-02-26T01:50:35;2.15;;;1.60;;
13985;SDS011;7067;51.832;8.296;2024-02-26T01:53:03;2.43;;;1.40;;
13985;SDS011;7067;51.832;8.296;2024-02-26T01:55:28;2.65;;;1.55;;
13985;SDS011;7067;51.832;8.296;2024-02-26T01:57:54;2.10;;;1.83;;
13985;SDS011;7067;51.832;8.296;2024-02-26T02:00:20;1.70;;;1.60;;
13985;SDS011;7067;51.832;8.296;2024-02-26T02:02:46;2.22;;;2.03;;
13985;SDS011;7067;51.832;8.296;2024-02-26T02:05:14;1.80;;;1.70;;
13985;SDS011;7067;51.832;8.296;2024-02-26T02:07:40;1.33;;;1.23;;
13985;SDS011;7067;51.832;8.296;2024-02-26T02:10:06;1.73;;;1.40;;
13985;SDS011;7067;51.832;8.296;2024-02-26T02:12:32;2.25;;;1.50;;
13985;SDS011;7067;51.832;8.296;2024-02-26T02:14:59;1.60;;;1.17;;
13985;SDS011;7067;51.832;8.296;2024-02-26T02:17:25;2.33;;;1.53;;
13985;SDS011;7067;51.832;8.296;2024-02-26T02:19:52;1.30;;;1.13;;
13985;SDS011;7067;51.832;8.296;2024-02-26T02:22:17;1.40;;;1.30;;
13985;SDS011;7067;51.832;8.296;2024-02-26T02:24:43;1.50;;;1.40;;
13985;SDS011;7067;51.832;8.296;2024-02-26T02:27:08;1.67;;;1.05;;
13985;SDS011;7067;51.832;8.296;2024-02-26T02:29:33;1.30;;;0.80;;
13985;SDS011;7067;51.832;8.296;2024-02-26T02:31:59;1.80;;;1.13;;
13985;SDS011;7067;51.832;8.296;2024-02-26T02:34:24;2.92;;;1.10;;
13985;SDS011;7067;51.832;8.296;2024-02-26T02:36:53;1.38;;;1.05;;
13985;SDS011;7067;51.832;8.296;2024-02-26T02:39:19;1.60;;;0.88;;
13985;SDS011;7067;51.832;8.296;2024-02-26T02:41:45;1.80;;;0.85;;
13985;SDS011;7067;51.832;8.296;2024-02-26T02:44:10;1.00;;;0.85;;
13985;SDS011;7067;51.832;8.296;2024-02-26T02:46:36;2.95;;;0.90;;
13985;SDS011;7067;51.832;8.296;2024-02-26T02:49:02;0.90;;;0.70;;
13985;SDS011;7067;51.832;8.296;2024-02-26T02:51:27;1.17;;;1.00;;
13985;SDS011;7067;51.832;8.296;2024-02-26T02:53:53;0.75;;;0.55;;
13985;SDS011;7067;51.832;8.296;2024-02-26T02:56:18;0.80;;;0.70;;
13985;SDS011;7067;51.832;8.296;2024-02-26T02:58:43;1.92;;;0.80;;
13985;SDS011;7067;51.832;8.296;2024-02-26T03:01:09;0.70;;;0.63;;
13985;SDS011;7067;51.832;8.296;2024-02-26T03:03:34;1.05;;;0.68;;
13985;SDS011;7067;51.832;8.296;2024-02-26T03:06:01;0.90;;;0.88;;
13985;SDS011;7067;51.832;8.296;2024-02-26T03:08:27;0.73;;;0.60;;
13985;SDS011;7067;51.832;8.296;2024-02-26T03:10:52;0.50;;;0.50;;
13985;SDS011;7067;51.832;8.296;2024-02-26T03:13:18;0.88;;;0.47;;
13985;SDS011;7067;51.832;8.296;2024-02-26T03:15:43;2.38;;;1.00;;
13985;SDS011;7067;51.832;8.296;2024-02-26T03:18:08;0.75;;;0.60;;
13985;SDS011;7067;51.832;8.296;2024-02-26T03:20:34;0.60;;;0.60;;
13985;SDS011;7067;51.832;8.296;2024-02-26T03:22:59;1.13;;;0.70;;
13985;SDS011;7067;51.832;8.296;2024-02-26T03:25:24;0.80;;;0.52;;
13985;SDS011;7067;51.832;8.296;2024-02-26T03:27:50;0.60;;;0.52;;
13985;SDS011;7067;51.832;8.296;2024-02-26T03:30:15;1.13;;;0.50;;
13985;SDS011;7067;51.832;8.296;2024-02-26T03:32:41;1.20;;;0.77;;
13985;SDS011;7067;51.832;8.296;2024-02-26T03:35:06;1.23;;;0.73;;
13985;SDS011;7067;51.832;8.296;2024-02-26T03:37:32;0.47;;;0.47;;
13985;SDS011;7067;51.832;8.296;2024-02-26T03:39:58;0.85;;;0.73;;
13985;SDS011;7067;51.832;8.296;2024-02-26T03:42:23;0.90;;;0.70;;
13985;SDS011;7067;51.832;8.296;2024-02-26T03:44:49;0.95;;;0.60;;
13985;SDS011;7067;51.832;8.296;2024-02-26T03:47:14;3.65;;;1.00;;
13985;SDS011;7067;51.832;8.296;2024-02-26T03:49:39;1.10;;;0.80;;
13985;SDS011;7067;51.832;8.296;2024-02-26T03:52:05;0.80;;;0.80;;
13985;SDS011;7067;51.832;8.296;2024-02-26T03:54:30;2.53;;;0.85;;
13985;SDS011;7067;51.832;8.296;2024-02-26T03:56:55;1.50;;;0.73;;
13985;SDS011;7067;51.832;8.296;2024-02-26T03:59:21;2.30;;;0.80;;
13985;SDS011;7067;51.832;8.296;2024-02-26T04:01:49;0.50;;;0.50;;
13985;SDS011;7067;51.832;8.296;2024-02-26T04:04:14;1.27;;;0.90;;
13985;SDS011;7067;51.832;8.296;2024-02-26T04:06:43;0.60;;;0.60;;
13985;SDS011;7067;51.832;8.296;2024-02-26T04:09:09;1.13;;;1.00;;
13985;SDS011;7067;51.832;8.296;2024-02-26T04:11:35;0.65;;;0.65;;
13985;SDS011;7067;51.832;8.296;2024-02-26T04:14:00;0.88;;;0.80;;
13985;SDS011;7067;51.832;8.296;2024-02-26T04:16:26;1.55;;;0.90;;
13985;SDS011;7067;51.832;8.296;2024-02-26T04:18:51;0.75;;;0.60;;
13985;SDS011;7067;51.832;8.296;2024-02-26T04:21:18;1.10;;;0.70;;
13985;SDS011;7067;51.832;8.296;2024-02-26T04:23:43;0.70;;;0.60;;
13985;SDS011;7067;51.832;8.296;2024-02-26T04:26:09;1.98;;;0.90;;
13985;SDS011;7067;51.832;8.296;2024-02-26T04:28:34;1.30;;;1.02;;
13985;SDS011;7067;51.832;8.296;2024-02-26T04:31:00;2.58;;;1.00;;
13985;SDS011;7067;51.832;8.296;2024-02-26T04:33:26;1.48;;;0.98;;
13985;SDS011;7067;51.832;8.296;2024-02-26T04:35:52;0.82;;;0.60;;
13985;SDS011;7067;51.832;8.296;2024-02-26T04:38:17;1.00;;;0.90;;
13985;SDS011;7067;51.832;8.296;2024-02-26T04:40:42;1.33;;;0.77;;
13985;SDS011;7067;51.832;8.296;2024-02-26T04:43:08;2.28;;;1.15;;
13985;SDS011;7067;51.832;8.296;2024-02-26T04:45:33;1.55;;;1.10;;
13985;SDS011;7067;51.832;8.296;2024-02-26T04:47:59;1.30;;;1.00;;
13985;SDS011;7067;51.832;8.296;2024-02-26T04:50:24;1.52;;;0.98;;
13985;SDS011;7067;51.832;8.296;2024-02-26T04:52:49;1.98;;;0.95;;
13985;SDS011;7067;51.832;8.296;2024-02-26T04:55:15;1.75;;;1.00;;
13985;SDS011;7067;51.832;8.296;2024-02-26T04:57:40;1.10;;;1.00;;
13985;SDS011;7067;51.832;8.296;2024-02-26T05:00:06;1.65;;;0.90;;
13985;SDS011;7067;51.832;8.296;2024-02-26T05:02:31;1.73;;;0.98;;
13985;SDS011;7067;51.832;8.296;2024-02-26T05:04:58;1.30;;;1.20;;
13985;SDS011;7067;51.832;8.296;2024-02-26T05:07:24;1.63;;;1.23;;
13985;SDS011;7067;51.832;8.296;2024-02-26T05:09:49;1.35;;;0.90;;
13985;SDS011;7067;51.832;8.296;2024-02-26T05:12:14;1.10;;;1.00;;
13985;SDS011;7067;51.832;8.296;2024-02-26T05:14:40;1.38;;;1.05;;
13985;SDS011;7067;51.832;8.296;2024-02-26T05:17:05;1.25;;;1.00;;
13985;SDS011;7067;51.832;8.296;2024-02-26T05:19:31;1.20;;;1.00;;
13985;SDS011;7067;51.832;8.296;2024-02-26T05:24:22;1.15;;;1.00;;
13985;SDS011;7067;51.832;8.296;2024-02-26T05:26:47;2.25;;;0.90;;
13985;SDS011;7067;51.832;8.296;2024-02-26T05:29:13;0.73;;;0.52;;
13985;SDS011;7067;51.832;8.296;2024-02-26T05:31:38;0.75;;;0.70;;
13985;SDS011;7067;51.832;8.296;2024-02-26T05:34:03;1.38;;;0.65;;
13985;SDS011;7067;51.832;8.296;2024-02-26T05:36:29;1.63;;;0.55;;
13985;SDS011;7067;51.832;8.296;2024-02-26T05:38:58;1.95;;;0.77;;
13985;SDS011;7067;51.832;8.296;2024-02-26T05:41:24;0.77;;;0.60;;
13985;SDS011;7067;51.832;8.296;2024-02-26T05:43:51;1.13;;;0.80;;
13985;SDS011;7067;51.832;8.296;2024-02-26T05:46:17;0.57;;;0.50;;
13985;SDS011;7067;51.832;8.296;2024-02-26T05:48:44;1.58;;;0.80;;
13985;SDS011;7067;51.832;8.296;2024-02-26T05:51:09;1.13;;;0.75;;
13985;SDS011;7067;51.832;8.296;2024-02-26T05:53:35;1.83;;;0.85;;
13985;SDS011;7067;51.832;8.296;2024-02-26T05:56:00;0.65;;;0.57;;
13985;SDS011;7067;51.832;8.296;2024-02-26T05:58:26;0.80;;;0.55;;
13985;SDS011;7067;51.832;8.296;2024-02-26T06:00:51;0.77;;;0.50;;
13985;SDS011;7067;51.832;8.296;2024-02-26T06:03:16;0.43;;;0.40;;
13985;SDS011;7067;51.832;8.296;2024-02-26T06:05:42;0.75;;;0.60;;
13985;SDS011;7067;51.832;8.296;2024-02-26T06:08:08;2.38;;;0.60;;
13985;SDS011;7067;51.832;8.296;2024-02-26T06:10:33;1.17;;;0.70;;
13985;SDS011;7067;51.832;8.296;2024-02-26T06:12:58;1.02;;;0.68;;
13985;SDS011;7067;51.832;8.296;2024-02-26T06:15:24;2.08;;;0.90;;
13985;SDS011;7067;51.832;8.296;2024-02-26T06:17:49;0.90;;;0.43;;
13985;SDS011;7067;51.832;8.296;2024-02-26T06:20:15;0.90;;;0.50;;
13985;SDS011;7067;51.832;8.296;2024-02-26T06:22:40;1.30;;;0.65;;
13985;SDS011;7067;51.832;8.296;2024-02-26T06:25:06;1.27;;;0.70;;
13985;SDS011;7067;51.832;8.296;2024-02-26T06:27:32;0.52;;;0.52;;
13985;SDS011;7067;51.832;8.296;2024-02-26T06:29:57;1.45;;;0.80;;
13985;SDS011;7067;51.832;8.296;2024-02-26T06:32:23;3.25;;;0.70;;
13985;SDS011;7067;51.832;8.296;2024-02-26T06:34:48;0.63;;;0.63;;
13985;SDS011;7067;51.832;8.296;2024-02-26T06:37:14;0.90;;;0.52;;
13985;SDS011;7067;51.832;8.296;2024-02-26T06:39:39;1.98;;;1.15;;
13985;SDS011;7067;51.832;8.296;2024-02-26T06:42:06;2.08;;;0.60;;
13985;SDS011;7067;51.832;8.296;2024-02-26T06:44:31;0.95;;;0.88;;
13985;SDS011;7067;51.832;8.296;2024-02-26T06:47:00;1.08;;;0.68;;
13985;SDS011;7067;51.832;8.296;2024-02-26T06:49:26;1.20;;;0.65;;
13985;SDS011;7067;51.832;8.296;2024-02-26T06:51:52;4.07;;;0.90;;
13985;SDS011;7067;51.832;8.296;2024-02-26T06:54:17;1.17;;;0.70;;
13985;SDS011;7067;51.832;8.296;2024-02-26T06:56:42;1.50;;;0.80;;
13985;SDS011;7067;51.832;8.296;2024-02-26T06:59:08;1.20;;;1.00;;
13985;SDS011;7067;51.832;8.296;2024-02-26T07:01:33;2.30;;;0.88;;
13985;SDS011;7067;51.832;8.296;2024-02-26T07:03:58;1.25;;;1.15;;
13985;SDS011;7067;51.832;8.296;2024-02-26T07:06:24;0.70;;;0.60;;
13985;SDS011;7067;51.832;8.296;2024-02-26T07:08:50;0.80;;;0.57;;
13985;SDS011;7067;51.832;8.296;2024-02-26T07:11:15;0.80;;;0.80;;
13985;SDS011;7067;51.832;8.296;2024-02-26T07:13:40;0.88;;;0.88;;
13985;SDS011;7067;51.832;8.296;2024-02-26T07:16:07;1.73;;;1.00;;
13985;SDS011;7067;51.832;8.296;2024-02-26T07:18:34;1.45;;;1.27;;
13985;SDS011;7067;51.832;8.296;2024-02-26T07:21:01;1.00;;;0.95;;
13985;SDS011;7067;51.832;8.296;2024-02-26T07:23:29;1.42;;;0.85;;
13985;SDS011;7067;51.832;8.296;2024-02-26T07:25:54;1.08;;;0.70;;
13985;SDS011;7067;51.832;8.296;2024-02-26T07:28:20;0.98;;;0.73;;
13985;SDS011;7067;51.832;8.296;2024-02-26T07:30:45;1.00;;;0.90;;
13985;SDS011;7067;51.832;8.296;2024-02-26T07:33:11;0.80;;;0.80;;
13985;SDS011;7067;51.832;8.296;2024-02-26T07:35:36;1.30;;;1.05;;
13985;SDS011;7067;51.832;8.296;2024-02-26T07:38:03;1.23;;;0.70;;
13985;SDS011;7067;51.832;8.296;2024-02-26T07:40:32;1.38;;;0.82;;
13985;SDS011;7067;51.832;8.296;2024-02-26T07:42:57;1.65;;;0.82;;
13985;SDS011;7067;51.832;8.296;2024-02-26T07:45:23;1.38;;;0.90;;
13985;SDS011;7067;51.832;8.296;2024-02-26T07:47:48;1.15;;;0.80;;
13985;SDS011;7067;51.832;8.296;2024-02-26T07:50:13;0.80;;;0.80;;
13985;SDS011;7067;51.832;8.296;2024-02-26T07:52:39;1.42;;;0.80;;
13985;SDS011;7067;51.832;8.296;2024-02-26T07:55:05;0.80;;;0.80;;
13985;SDS011;7067;51.832;8.296;2024-02-26T07:57:32;1.38;;;0.88;;
13985;SDS011;7067;51.832;8.296;2024-02-26T07:59:58;0.77;;;0.68;;
13985;SDS011;7067;51.832;8.296;2024-02-26T08:02:24;0.70;;;0.60;;
13985;SDS011;7067;51.832;8.296;2024-02-26T08:04:50;3.35;;;1.00;;
13985;SDS011;7067;51.832;8.296;2024-02-26T08:07:15;1.42;;;1.33;;
13985;SDS011;7067;51.832;8.296;2024-02-26T08:09:40;3.20;;;1.52;;
13985;SDS011;7067;51.832;8.296;2024-02-26T08:12:06;1.90;;;1.80;;
13985;SDS011;7067;51.832;8.296;2024-02-26T08:14:31;1.33;;;1.23;;
13985;SDS011;7067;51.832;8.296;2024-02-26T08:16:57;1.33;;;1.17;;
13985;SDS011;7067;51.832;8.296;2024-02-26T08:19:23;1.88;;;1.48;;
13985;SDS011;7067;51.832;8.296;2024-02-26T08:21:49;2.67;;;1.42;;
13985;SDS011;7067;51.832;8.296;2024-02-26T08:24:14;1.88;;;1.70;;
13985;SDS011;7067;51.832;8.296;2024-02-26T08:26:40;1.45;;;1.05;;
13985;SDS011;7067;51.832;8.296;2024-02-26T08:29:05;2.33;;;1.40;;
13985;SDS011;7067;51.832;8.296;2024-02-26T08:31:30;1.38;;;0.90;;
13985;SDS011;7067;51.832;8.296;2024-02-26T08:33:56;1.30;;;1.20;;
13985;SDS011;7067;51.832;8.296;2024-02-26T08:36:21;1.10;;;1.00;;
13985;SDS011;7067;51.832;8.296;2024-02-26T08:38:46;1.73;;;1.33;;
13985;SDS011;7067;51.832;8.296;2024-02-26T08:41:12;3.53;;;1.35;;
13985;SDS011;7067;51.832;8.296;2024-02-26T08:43:38;1.27;;;1.10;;
13985;SDS011;7067;51.832;8.296;2024-02-26T08:46:03;1.38;;;1.27;;
13985;SDS011;7067;51.832;8.296;2024-02-26T08:48:29;1.27;;;1.10;;
13985;SDS011;7067;51.832;8.296;2024-02-26T08:50:54;2.78;;;1.45;;
13985;SDS011;7067;51.832;8.296;2024-02-26T08:53:20;2.67;;;1.30;;
13985;SDS011;7067;51.832;8.296;2024-02-26T08:55:45;2.45;;;1.77;;
13985;SDS011;7067;51.832;8.296;2024-02-26T08:58:10;2.13;;;1.35;;
13985;SDS011;7067;51.832;8.296;2024-02-26T09:00:36;1.50;;;1.38;;
13985;SDS011;7067;51.832;8.296;2024-02-26T09:03:01;1.52;;;1.40;;
13985;SDS011;7067;51.832;8.296;2024-02-26T09:05:26;1.88;;;1.48;;
13985;SDS011;7067;51.832;8.296;2024-02-26T09:07:52;1.75;;;1.45;;
13985;SDS011;7067;51.832;8.296;2024-02-26T09:10:17;1.45;;;1.35;;
13985;SDS011;7067;51.832;8.296;2024-02-26T09:12:42;1.42;;;1.27;;
13985;SDS011;7067;51.832;8.296;2024-02-26T09:15:08;1.50;;;1.38;;
13985;SDS011;7067;51.832;8.296;2024-02-26T09:17:34;1.60;;;1.17;;
13985;SDS011;7067;51.832;8.296;2024-02-26T09:19:59;2.67;;;1.33;;
13985;SDS011;7067;51.832;8.296;2024-02-26T09:22:25;4.30;;;1.10;;
13985;SDS011;7067;51.832;8.296;2024-02-26T09:24:50;1.38;;;1.23;;
13985;SDS011;7067;51.832;8.296;2024-02-26T09:27:17;1.60;;;1.42;;
13985;SDS011;7067;51.832;8.296;2024-02-26T09:29:42;2.97;;;1.08;;
13985;SDS011;7067;51.832;8.296;2024-02-26T09:32:08;1.48;;;1.30;;
13985;SDS011;7067;51.832;8.296;2024-02-26T09:34:33;1.73;;;1.35;;
13985;SDS011;7067;51.832;8.296;2024-02-26T09:36:59;1.73;;;1.63;;
13985;SDS011;7067;51.832;8.296;2024-02-26T09:39:25;3.33;;;1.63;;
13985;SDS011;7067;51.832;8.296;2024-02-26T09:41:50;3.28;;;2.00;;
13985;SDS011;7067;51.832;8.296;2024-02-26T09:44:18;2.13;;;2.00;;
13985;SDS011;7067;51.832;8.296;2024-02-26T09:46:47;2.92;;;2.33;;
13985;SDS011;7067;51.832;8.296;2024-02-26T09:49:13;3.15;;;2.53;;
13985;SDS011;7067;51.832;8.296;2024-02-26T09:51:40;2.40;;;2.20;;
13985;SDS011;7067;51.832;8.296;2024-02-26T09:54:07;2.53;;;2.33;;
13985;SDS011;7067;51.832;8.296;2024-02-26T09:56:34;4.63;;;2.80;;
13985;SDS011;7067;51.832;8.296;2024-02-26T09:59:00;3.05;;;2.53;;
13985;SDS011;7067;51.832;8.296;2024-02-26T10:01:26;6.10;;;3.10;;
13985;SDS011;7067;51.832;8.296;2024-02-26T10:03:55;3.60;;;3.30;;
13985;SDS011;7067;51.832;8.296;2024-02-26T10:06:20;3.33;;;3.05;;
13985;SDS011;7067;51.832;8.296;2024-02-26T10:08:46;6.50;;;3.25;;
13985;SDS011;7067;51.832;8.296;2024-02-26T10:11:12;4.15;;;2.90;;
13985;SDS011;7067;51.832;8.296;2024-02-26T10:13:38;3.50;;;3.20;;
13985;SDS011;7067;51.832;8.296;2024-02-26T10:16:03;3.67;;;3.38;;
13985;SDS011;7067;51.832;8.296;2024-02-26T10:18:45;3.65;;;3.25;;
13985;SDS011;7067;51.832;8.296;2024-02-26T10:21:18;3.85;;;3.20;;
13985;SDS011;7067;51.832;8.296;2024-02-26T10:23:44;3.55;;;3.08;;
13985;SDS011;7067;51.832;8.296;2024-02-26T10:26:10;3.72;;;2.97;;
13985;SDS011;7067;51.832;8.296;2024-02-26T10:28:41;3.80;;;3.50;;
13985;SDS011;7067;51.832;8.296;2024-02-26T10:31:06;3.40;;;3.15;;
13985;SDS011;7067;51.832;8.296;2024-02-26T10:33:33;3.13;;;2.92;;
13985;SDS011;7067;51.832;8.296;2024-02-26T10:36:00;3.45;;;3.15;;
13985;SDS011;7067;51.832;8.296;2024-02-26T10:38:26;4.22;;;3.83;;
13985;SDS011;7067;51.832;8.296;2024-02-26T10:40:51;4.40;;;4.07;;
13985;SDS011;7067;51.832;8.296;2024-02-26T10:43:17;3.60;;;3.30;;
13985;SDS011;7067;51.832;8.296;2024-02-26T10:45:43;3.10;;;2.72;;
13985;SDS011;7067;51.832;8.296;2024-02-26T10:48:12;2.97;;;2.78;;
13985;SDS011;7067;51.832;8.296;2024-02-26T10:53:05;3.45;;;3.15;;
13985;SDS011;7067;51.832;8.296;2024-02-26T10:55:55;3.17;;;2.88;;
13985;SDS011;7067;51.832;8.296;2024-02-26T10:58:24;3.17;;;2.88;;
13985;SDS011;7067;51.832;8.296;2024-02-26T11:00:50;2.85;;;2.65;;
13985;SDS011;7067;51.832;8.296;2024-02-26T11:03:16;4.25;;;3.28;;
13985;SDS011;7067;51.832;8.296;2024-02-26T11:05:44;3.45;;;3.15;;
13985;SDS011;7067;51.832;8.296;2024-02-26T11:08:12;5.07;;;3.80;;
13985;SDS011;7067;51.832;8.296;2024-02-26T11:10:40;3.63;;;3.33;;
13985;SDS011;7067;51.832;8.296;2024-02-26T11:13:06;5.03;;;4.45;;
13985;SDS011;7067;51.832;8.296;2024-02-26T11:15:34;4.80;;;4.22;;
13985;SDS011;7067;51.832;8.296;2024-02-26T11:18:00;4.13;;;3.72;;
13985;SDS011;7067;51.832;8.296;2024-02-26T11:20:28;5.53;;;5.03;;
13985;SDS011;7067;51.832;8.296;2024-02-26T11:22:54;6.78;;;4.63;;
13985;SDS011;7067;51.832;8.296;2024-02-26T11:25:20;5.72;;;4.10;;
13985;SDS011;7067;51.832;8.296;2024-02-26T11:27:52;5.35;;;4.60;;
13985;SDS011;7067;51.832;8.296;2024-02-26T11:30:22;4.53;;;4.13;;
13985;SDS011;7067;51.832;8.296;2024-02-26T11:32:47;4.47;;;3.97;;
13985;SDS011;7067;51.832;8.296;2024-02-26T11:35:13;4.13;;;3.72;;
13985;SDS011;7067;51.832;8.296;2024-02-26T11:37:40;4.15;;;3.75;;
13985;SDS011;7067;51.832;8.296;2024-02-26T11:40:09;4.35;;;3.95;;
13985;SDS011;7067;51.832;8.296;2024-02-26T11:42:35;3.38;;;3.08;;
13985;SDS011;7067;51.832;8.296;2024-02-26T11:45:37;4.07;;;3.55;;
13985;SDS011;7067;51.832;8.296;2024-02-26T11:48:03;6.30;;;4.00;;
13985;SDS011;7067;51.832;8.296;2024-02-26T11:51:01;4.13;;;3.72;;
13985;SDS011;7067;51.832;8.296;2024-02-26T11:53:21;4.95;;;4.45;;
13985;SDS011;7067;51.832;8.296;2024-02-26T11:55:46;4.53;;;4.13;;
13985;SDS011;7067;51.832;8.296;2024-02-26T11:58:12;4.00;;;3.70;;
13985;SDS011;7067;51.832;8.296;2024-02-26T12:00:39;5.15;;;3.90;;
13985;SDS011;7067;51.832;8.296;2024-02-26T12:03:05;4.88;;;4.00;;
13985;SDS011;7067;51.832;8.296;2024-02-26T12:05:33;8.32;;;4.97;;
13985;SDS011;7067;51.832;8.296;2024-02-26T12:08:00;5.45;;;4.70;;
13985;SDS011;7067;51.832;8.296;2024-02-26T12:10:31;5.15;;;4.57;;
13985;SDS011;7067;51.832;8.296;2024-02-26T12:15:33;4.47;;;4.07;;
13985;SDS011;7067;51.832;8.296;2024-02-26T12:18:02;4.85;;;4.45;;
13985;SDS011;7067;51.832;8.296;2024-02-26T12:20:29;5.63;;;5.10;;
13985;SDS011;7067;51.832;8.296;2024-02-26T12:22:54;5.93;;;5.43;;
13985;SDS011;7067;51.832;8.296;2024-02-26T12:25:22;5.45;;;4.47;;
13985;SDS011;7067;51.832;8.296;2024-02-26T12:27:49;9.30;;;4.72;;
13985;SDS011;7067;51.832;8.296;2024-02-26T12:30:14;5.05;;;4.63;;
13985;SDS011;7067;51.832;8.296;2024-02-26T12:32:40;4.78;;;4.25;;
13985;SDS011;7067;51.832;8.296;2024-02-26T12:35:05;5.07;;;4.55;;
13985;SDS011;7067;51.832;8.296;2024-02-26T12:37:31;5.75;;;4.93;;
13985;SDS011;7067;51.832;8.296;2024-02-26T12:39:57;6.03;;;5.28;;
13985;SDS011;7067;51.832;8.296;2024-02-26T12:42:22;5.63;;;5.07;;
13985;SDS011;7067;51.832;8.296;2024-02-26T12:44:49;6.35;;;5.78;;
13985;SDS011;7067;51.832;8.296;2024-02-26T12:47:14;5.43;;;4.93;;
13985;SDS011;7067;51.832;8.296;2024-02-26T12:49:42;6.32;;;5.72;;
13985;SDS011;7067;51.832;8.296;2024-02-26T12:52:08;5.82;;;5.32;;
13985;SDS011;7067;51.832;8.296;2024-02-26T12:54:35;6.07;;;5.55;;
13985;SDS011;7067;51.832;8.296;2024-02-26T12:57:04;7.72;;;5.45;;
13985;SDS011;7067;51.832;8.296;2024-02-26T12:59:31;5.70;;;5.20;;
13985;SDS011;7067;51.832;8.296;2024-02-26T13:01:57;6.15;;;5.57;;
13985;SDS011;7067;51.832;8.296;2024-02-26T13:04:23;5.30;;;4.90;;
13985;SDS011;7067;51.832;8.296;2024-02-26T13:06:49;5.55;;;5.05;;
13985;SDS011;7067;51.832;8.296;2024-02-26T13:09:14;5.32;;;4.25;;
13985;SDS011;7067;51.832;8.296;2024-02-26T13:11:40;7.32;;;5.10;;
13985;SDS011;7067;51.832;8.296;2024-02-26T13:14:05;5.20;;;4.53;;
13985;SDS011;7067;51.832;8.296;2024-02-26T13:16:31;5.78;;;5.18;;
13985;SDS011;7067;51.832;8.296;2024-02-26T13:19:07;4.20;;;3.80;;
13985;SDS011;7067;51.832;8.296;2024-02-26T13:21:34;4.93;;;4.43;;
13985;SDS011;7067;51.832;8.296;2024-02-26T13:23:59;5.13;;;4.13;;
13985;SDS011;7067;51.832;8.296;2024-02-26T13:26:24;4.38;;;4.00;;
13985;SDS011;7067;51.832;8.296;2024-02-26T13:29:00;4.68;;;4.18;;
13985;SDS011;7067;51.832;8.296;2024-02-26T13:31:26;5.45;;;3.78;;
13985;SDS011;7067;51.832;8.296;2024-02-26T13:33:51;3.50;;;3.20;;
13985;SDS011;7067;51.832;8.296;2024-02-26T13:36:20;3.47;;;3.10;;
13985;SDS011;7067;51.832;8.296;2024-02-26T13:38:58;3.85;;;3.40;;
13985;SDS011;7067;51.832;8.296;2024-02-26T13:41:26;5.25;;;4.68;;
13985;SDS011;7067;51.832;8.296;2024-02-26T13:43:52;4.45;;;4.05;;
13985;SDS011;7067;51.832;8.296;2024-02-26T13:46:17;4.63;;;3.55;;
13985;SDS011;7067;51.832;8.296;2024-02-26T13:48:43;4.70;;;4.30;;
13985;SDS011;7067;51.832;8.296;2024-02-26T13:51:08;3.72;;;3.30;;
13985;SDS011;7067;51.832;8.296;2024-02-26T13:53:34;3.70;;;3.40;;
13985;SDS011;7067;51.832;8.296;2024-02-26T13:55:59;3.40;;;3.10;;
13985;SDS011;7067;51.832;8.296;2024-02-26T13:58:26;4.85;;;3.13;;
13985;SDS011;7067;51.832;8.296;2024-02-26T14:00:52;3.60;;;3.08;;
13985;SDS011;7067;51.832;8.296;2024-02-26T14:03:20;3.63;;;3.33;;
13985;SDS011;7067;51.832;8.296;2024-02-26T14:05:46;5.00;;;3.20;;
13985;SDS011;7067;51.832;8.296;2024-02-26T14:08:12;3.25;;;2.95;;
13985;SDS011;7067;51.832;8.296;2024-02-26T14:10:37;2.95;;;2.75;;
13985;SDS011;7067;51.832;8.296;2024-02-26T14:13:05;3.42;;;3.03;;
13985;SDS011;7067;51.832;8.296;2024-02-26T14:15:31;3.30;;;2.72;;
13985;SDS011;7067;51.832;8.296;2024-02-26T14:17:57;3.55;;;2.97;;
13985;SDS011;7067;51.832;8.296;2024-02-26T14:20:23;3.00;;;2.70;;
13985;SDS011;7067;51.832;8.296;2024-02-26T14:22:51;3.10;;;2.80;;
13985;SDS011;7067;51.832;8.296;2024-02-26T14:25:18;3.03;;;2.80;;
13985;SDS011;7067;51.832;8.296;2024-02-26T14:27:45;3.08;;;2.50;;
13985;SDS011;7067;51.832;8.296;2024-02-26T14:30:11;4.28;;;2.20;;
13985;SDS011;7067;51.832;8.296;2024-02-26T14:32:37;3.30;;;2.10;;
13985;SDS011;7067;51.832;8.296;2024-02-26T14:35:03;3.75;;;2.28;;
13985;SDS011;7067;51.832;8.296;2024-02-26T14:37:32;3.00;;;2.70;;
13985;SDS011;7067;51.832;8.296;2024-02-26T14:39:57;2.70;;;2.33;;
13985;SDS011;7067;51.832;8.296;2024-02-26T14:42:23;2.85;;;2.65;;
13985;SDS011;7067;51.832;8.296;2024-02-26T14:44:49;2.97;;;2.50;;
13985;SDS011;7067;51.832;8.296;2024-02-26T14:47:16;3.15;;;2.95;;
13985;SDS011;7067;51.832;8.296;2024-02-26T14:49:41;3.05;;;2.42;;
13985;SDS011;7067;51.832;8.296;2024-02-26T14:52:07;2.92;;;2.72;;
13985;SDS011;7067;51.832;8.296;2024-02-26T14:54:33;3.80;;;2.65;;
13985;SDS011;7067;51.832;8.296;2024-02-26T14:57:02;5.32;;;3.35;;
13985;SDS011;7067;51.832;8.296;2024-02-26T14:59:29;3.45;;;3.15;;
13985;SDS011;7067;51.832;8.296;2024-02-26T15:01:56;3.60;;;3.20;;